ADDS METAR Data INFO
IDs: Format: Raw Decoded Include TAF

Data at: 0645 UTC 23 Feb 2018

KDRM 230635Z AUTO 00000KT 10SM OVC070 M04/M09 A3046 RMK AO2 T10441087
KDRM 230615Z AUTO 00000KT 10SM OVC070 M04/M09 A3046 RMK AO2 T10431091
KDRM 230555Z AUTO 10003KT 10SM OVC080 M04/M09 A3047 RMK AO2 T10431094 11040 21048 410251135
KDRM 230535Z AUTO 10003KT 10SM OVC080 M04/M10 A3050 RMK AO2 T10431096
KDRM 230515Z AUTO 10004KT 10SM OVC080 M04/M10 A3050 RMK AO2 T10431104
KDRM 230455Z AUTO 11005KT 10SM OVC080 M04/M10 A3051 RMK AO2 T10451103
KDRM 230435Z AUTO 09003KT 10SM BKN080 OVC090 M04/M10 A3052 RMK AO2 T10451105
KDRM 230415Z AUTO 10003KT 10SM OVC090 M04/M10 A3053 RMK AO2 T10451103
KDRM 230355Z AUTO 07003KT 10SM OVC090 M05/M10 A3054 RMK AO2 T10481099
KDRM 230335Z AUTO 00000KT 10SM OVC090 M05/M10 A3057 RMK AO2 T10481097
KDRM 230315Z AUTO 00000KT 10SM OVC100 M05/M10 A3058 RMK AO2 T10471096
KDRM 230255Z AUTO 00000KT 10SM SCT090 BKN110 M05/M09 A3058 RMK AO2 T10461095
KDRM 230235Z AUTO 00000KT 10SM SCT110 M04/M09 A3057 RMK AO2 T10451095
KDRM 230215Z AUTO 11003KT 10SM SCT110 M04/M09 A3058 RMK AO2 T10431093
KDRM 230155Z AUTO 00000KT 10SM SCT100 M04/M09 A3060 RMK AO2 T10421092
KDRM 230135Z AUTO 00000KT 10SM BKN100 BKN120 M04/M09 A3060 RMK AO2 T10421092
KDRM 230115Z AUTO 00000KT 10SM OVC100 M04/M09 A3061 RMK AO2 T10411092
KDRM 230055Z AUTO 00000KT 10SM BKN110 M04/M09 A3062 RMK AO2 T10401092
KDRM 230035Z AUTO 00000KT 10SM SCT110 M04/M09 A3064 RMK AO2 T10401091
KDRM 230015Z AUTO 00000KT 10SM OVC100 M04/M09 A3064 RMK AO2 T10401093
KDRM 222355Z AUTO 15003KT 10SM OVC100 M04/M09 A3065 RMK AO2 T10401089 11025 21040
KDRM 222335Z AUTO 14003KT 10SM OVC100 M04/M09 A3063 RMK AO2 T10381091
KDRM 222315Z AUTO 14003KT 10SM OVC100 M04/M09 A3062 RMK AO2 T10381091
KDRM 222255Z AUTO 14004KT 10SM SCT100 OVC120 M04/M09 A3062 RMK AO2 T10381091
KDRM 222235Z AUTO 11005KT 10SM BKN100 OVC120 M04/M09 A3061 RMK AO2 T10361090
KDRM 222215Z AUTO 13003KT 10SM BKN110 M04/M09 A3063 RMK AO2 T10361090
KDRM 222155Z AUTO 00000KT 10SM SCT090 SCT120 M04/M09 A3064 RMK AO2 T10361091
KDRM 222135Z AUTO 15003KT 10SM BKN090 OVC120 M03/M09 A3065 RMK AO2 T10321092
KDRM 222115Z AUTO 14004KT 10SM BKN090 OVC110 M03/M09 A3065 RMK AO2 T10321095
KDRM 222055Z AUTO 00000KT 10SM OVC110 M03/M09 A3066 RMK AO2 T10321094
KDRM 222035Z AUTO 16005KT 10SM BKN110 M03/M09 A3066 RMK AO2 T10321094
KDRM 222015Z AUTO 16004KT 10SM CLR M03/M09 A3065 RMK AO2 T10321095
KDRM 221955Z AUTO 18004KT 10SM CLR M03/M09 A3064 RMK AO2 T10261089
KDRM 221935Z AUTO 09004KT 10SM SCT110 M03/M10 A3064 RMK AO2 T10281103
KDRM 221915Z AUTO 00000KT 10SM CLR M03/M10 A3065 RMK AO2 T10281101
KDRM 221855Z AUTO 07003KT 10SM CLR M03/M10 A3065 RMK AO2 T10271100
KDRM 221835Z AUTO 03004KT 10SM CLR M03/M09 A3067 RMK AO2 T10311092
KDRM 221815Z AUTO 35005KT 10SM CLR M03/M10 A3068 RMK AO2 T10301097
KDRM 221755Z AUTO 35005KT 10SM CLR M03/M09 A3069 RMK AO2 T10331092 11031 21135
KDRM 221735Z AUTO 02004KT 10SM CLR M03/M10 A3071 RMK AO2 T10341101
KDRM 221715Z AUTO 32003KT 10SM SCT110 M03/M10 A3072 RMK AO2 T10351103
KDRM 221655Z AUTO 04004KT 10SM SCT110 M03/M10 A3073 RMK AO2 T10351101
KDRM 221635Z AUTO 09004KT 10SM CLR M04/M10 A3073 RMK AO2 T10401104
KDRM 221615Z AUTO 00000KT 10SM CLR M04/M10 A3073 RMK AO2 T10451104
KDRM 221555Z AUTO 08003KT 10SM CLR M05/M10 A3073 RMK AO2 T10481101
KDRM 221535Z AUTO 00000KT 10SM CLR M05/M10 A3074 RMK AO2 T10521098
KDRM 221515Z AUTO 00000KT 10SM CLR M07/M10 A3074 RMK AO2 T10741098
KDRM 221455Z AUTO 00000KT 10SM CLR M10/M11 A3073 RMK AO2 T10981114
KDRM 221435Z AUTO 00000KT 10SM CLR M11/M12 A3074 RMK AO2 T11081121
KDRM 221415Z AUTO 00000KT 10SM CLR M11/M12 A3074 RMK AO2 T11101120
KDRM 221355Z AUTO 00000KT 10SM CLR M12/M13 A3074 RMK AO2 T11201130
KDRM 221335Z AUTO 00000KT 10SM CLR M13/M14 A3073 RMK AO2 T11291139
KDRM 221315Z AUTO 00000KT 10SM CLR M13/M14 A3071 RMK AO2 T11311141
KDRM 221255Z AUTO 00000KT 10SM CLR M13/M14 A3069 RMK AO2 T11281137
KDRM 221235Z AUTO 00000KT 10SM CLR M13/M14 A3069 RMK AO2 T11311142
KDRM 221215Z AUTO 00000KT 10SM CLR M13/M14 A3068 RMK AO2 T11321142
KDRM 221155Z AUTO 00000KT 10SM CLR M13/M14 A3067 RMK AO2 T11341144 11110 21135
KDRM 221135Z AUTO 00000KT 10SM CLR M13/M14 A3067 RMK AO2 T11281137
KDRM 221115Z AUTO 00000KT 10SM CLR M13/M14 A3067 RMK AO2 T11281138
KDRM 221055Z AUTO 00000KT 10SM CLR M13/M14 A3067 RMK AO2 T11321142
KDRM 221035Z AUTO 00000KT 10SM CLR M13/M14 A3067 RMK AO2 T11311141
KDRM 221015Z AUTO 00000KT 10SM CLR M13/M14 A3068 RMK AO2 T11281137
KDRM 220955Z AUTO 00000KT 10SM CLR M13/M14 A3068 RMK AO2 T11281138
KDRM 220935Z AUTO 00000KT 10SM CLR M13/M14 A3068 RMK AO2 T11321142
KDRM 220915Z AUTO 00000KT 10SM CLR M13/M14 A3067 RMK AO2 T11301140
KDRM 220855Z AUTO 00000KT 10SM CLR M12/M13 A3067 RMK AO2 T11241132
KDRM 220835Z AUTO 00000KT 10SM CLR M12/M13 A3068 RMK AO2 T11231131
KDRM 220815Z AUTO 00000KT 10SM CLR M12/M13 A3068 RMK AO2 T11201129
KDRM 220755Z AUTO 00000KT 10SM CLR M12/M13 A3068 RMK AO2 T11201127
KDRM 220735Z AUTO 00000KT 10SM CLR M11/M12 A3069 RMK AO2 T11151123
KDRM 220715Z AUTO 00000KT 10SM CLR M12/M12 A3068 RMK AO2 T11171124
KDRM 220655Z AUTO 00000KT 10SM CLR M11/M12 A3068 RMK AO2 T11111117
KDRM 220635Z AUTO 00000KT 10SM CLR M11/M12 A3068 RMK AO2 T11121118
KDRM 220615Z AUTO 00000KT 10SM CLR M11/M12 A3069 RMK AO2 T11111116
KDRM 220555Z AUTO 00000KT 10SM CLR M11/M11 A3068 RMK AO2 T11081115 11051 21108 410161108
KDRM 220535Z AUTO 00000KT 10SM CLR M10/M11 A3069 RMK AO2 T11051111
KDRM 220515Z AUTO 00000KT 10SM SCT023 M10/M11 A3069 RMK AO2 T11011107
KDRM 220455Z AUTO 00000KT 10SM OVC023 M10/M11 A3068 RMK AO2 T10981106
KDRM 220435Z AUTO 00000KT 10SM OVC023 M10/M11 A3068 RMK AO2 T10961107
KDRM 220415Z AUTO 00000KT 10SM SCT023 M09/M10 A3068 RMK AO2 T10891103
KDRM 220355Z AUTO 00000KT 10SM CLR M08/M10 A3068 RMK AO2 T10811100
KDRM 220035Z AUTO 00000KT 10SM OVC028 M05/M09 A3062 RMK AO2 T10551089
KDRM 220015Z AUTO 00000KT 10SM OVC028 M05/M09 A3062 RMK AO2 T10531090
KDRM 212355Z AUTO 00000KT 10SM OVC028 M05/M09 A3061 RMK AO2 T10501090 11040 21055
KDRM 212335Z AUTO 00000KT 10SM OVC028 M05/M09 A3059 RMK AO2 T10501092
KDRM 212315Z AUTO 00000KT 10SM OVC028 M05/M09 A3059 RMK AO2 T10481093
KDRM 212255Z AUTO 00000KT 10SM OVC028 M05/M09 A3058 RMK AO2 T10481095
KDRM 212235Z AUTO 35003KT 10SM OVC028 M05/M09 A3058 RMK AO2 T10471095
KDRM 212215Z AUTO 35003KT 10SM OVC028 M05/M10 A3057 RMK AO2 T10461096
KDRM 212155Z AUTO 00000KT 10SM OVC028 M05/M09 A3056 RMK AO2 T10461093
KDRM 212135Z AUTO 32003KT 10SM OVC028 M04/M09 A3056 RMK AO2 T10451091
KDRM 212115Z AUTO 35005KT 10SM OVC030 M04/M09 A3055 RMK AO2 T10431089
KDRM 212055Z AUTO 31005KT 10SM OVC030 M04/M09 A3055 RMK AO2 T10411094
KDRM 212035Z AUTO 32005KT 10SM OVC030 M04/M09 A3053 RMK AO2 T10411095
KDRM 212015Z AUTO 31005KT 10SM OVC032 M04/M09 A3052 RMK AO2 T10411095
KDRM 211955Z AUTO 32004KT 10SM OVC030 M04/M09 A3051 RMK AO2 T10451095
KDRM 211935Z AUTO 32004KT 10SM OVC030 M05/M10 A3050 RMK AO2 T10471097
KDRM 211915Z AUTO 31006KT 280V350 10SM OVC028 M05/M10 A3050 RMK AO2 T10461098
KDRM 211855Z AUTO 30004KT 10SM OVC030 M05/M09 A3050 RMK AO2 T10481094